Terminal Aerodrome Forecast
Issued by NWS Tulsa, OK

Home | Current Version | Previous Version | Text Only | Print | Product List | Glossary On
Versions: 1 2 3 4 5 6 7 8 9 10 11 12 13 14
000
FTUS44 KTSA 232320
TAFFSM
TAF
KFSM 232320Z 2400/2424 02007KT P6SM SCT060 BKN150
     FM240600 VRB03KT P6SM SCT250
     FM241800 05004KT P6SM SCT050=

USA.gov is the U.S. government's official web portal to all federal, state and local government web resources and services.